70.9°F
Current conditions from King Hill
Updated every 5 minutes
 
  Wednesday July 23, 2014

Station Historical Data
Daily Summary for March 25, 2011 Units:  Both    English   Metric
« Previous Day
Next Day »
Daily Weekly Monthly Yearly Custom
  High: Low: Average:
Temperature: 30.9 °F /  -0.6 °C 19.4 °F /  -7 °C 24.4 °F /  -4.2 °C
Dew Point: 23.2 °F /  -4.9 °C 5.5 °F /  -14.7 °C 12.1 °F /  -11.1 °C
Humidity: 92% 41% 61%
Wind Speed: 10.0mph /  16.1km/h - 4.1mph /  6.6km/h
Wind Gust: 19.0mph /  30.6km/h - -
Wind- - WNW
Pressure: 29.92 in /  1013.1 hPa 29.83 in /  1010 hPa -
Precipitation: 0.00 in /  0 mm    
Historical Graphs
 
 
Tabular Data for March 25, 2011
Time Temperature Dew Point Pressure Wind Wind Speed Wind Gust Humidity Daily Rainfall
00:04 26.4 °F /  -3.1 °C 20.8 °F /  -6.2 °C 29.86in /  1011.1hPa West 3.0mph /  4.8km/h 8.0mph /  12.9km/h 79% 0.00in /  0mm
00:09 26.5 °F /  -3.1 °C 20.6 °F /  -6.3 °C 29.85in /  1010.7hPa West 3.0mph /  4.8km/h 7.0mph /  11.3km/h 78% 0.00in /  0mm
00:14 26.6 °F /  -3 °C 20.4 °F /  -6.4 °C 29.85in /  1010.7hPa West 3.0mph /  4.8km/h 7.0mph /  11.3km/h 77% 0.00in /  0mm
00:19 26.6 °F /  -3 °C 20.1 °F /  -6.6 °C 29.85in /  1010.7hPa West 2.0mph /  3.2km/h 7.0mph /  11.3km/h 76% 0.00in /  0mm
00:24 26.6 °F /  -3 °C 19.7 °F /  -6.8 °C 29.85in /  1010.7hPa WNW 4.0mph /  6.4km/h 7.0mph /  11.3km/h 75% 0.00in /  0mm
00:30 26.6 °F /  -3 °C 20.1 °F /  -6.6 °C 29.85in /  1010.7hPa West 6.0mph /  9.7km/h 11.0mph /  17.7km/h 76% 0.00in /  0mm
00:34 26.3 °F /  -3.2 °C 20.4 °F /  -6.4 °C 29.85in /  1010.7hPa West 5.0mph /  8km/h 11.0mph /  17.7km/h 78% 0.00in /  0mm
00:39 26.1 °F /  -3.3 °C 20.5 °F /  -6.4 °C 29.85in /  1010.7hPa West 2.0mph /  3.2km/h 9.0mph /  14.5km/h 79% 0.00in /  0mm
00:44 26.0 °F /  -3.3 °C 20.4 °F /  -6.4 °C 29.85in /  1010.7hPa WNW 4.0mph /  6.4km/h 9.0mph /  14.5km/h 79% 0.00in /  0mm
00:49 26.0 °F /  -3.3 °C 20.7 °F /  -6.3 °C 29.85in /  1010.7hPa WNW 4.0mph /  6.4km/h 9.0mph /  14.5km/h 80% 0.00in /  0mm
00:54 25.8 °F /  -3.4 °C 21.1 °F /  -6.1 °C 29.85in /  1010.7hPa WNW 4.0mph /  6.4km/h 9.0mph /  14.5km/h 82% 0.00in /  0mm
01:04 25.3 °F /  -3.7 °C 21.1 °F /  -6.1 °C 29.85in /  1010.7hPa WNW 3.0mph /  4.8km/h 7.0mph /  11.3km/h 84% 0.00in /  0mm
01:09 25.2 °F /  -3.8 °C 21.3 °F /  -5.9 °C 29.85in /  1010.7hPa WNW 2.0mph /  3.2km/h 7.0mph /  11.3km/h 85% 0.00in /  0mm
01:14 25.2 °F /  -3.8 °C 23.2 °F /  -4.9 °C 29.85in /  1010.7hPa Calm   5.0mph /  8km/h 92% 0.00in /  0mm
01:19 25.0 °F /  -3.9 °C 21.1 °F /  -6.1 °C 29.85in /  1010.7hPa Calm   4.0mph /  6.4km/h 85% 0.00in /  0mm
01:24 24.8 °F /  -4 °C 20.9 °F /  -6.2 °C 29.85in /  1010.7hPa Calm   2.0mph /  3.2km/h 85% 0.00in /  0mm
01:29 24.8 °F /  -4 °C 20.7 °F /  -6.3 °C 29.85in /  1010.7hPa Calm   3.0mph /  4.8km/h 84% 0.00in /  0mm
01:34 24.6 °F /  -4.1 °C 20.5 °F /  -6.4 °C 29.85in /  1010.7hPa WNW 1.0mph /  1.6km/h 3.0mph /  4.8km/h 84% 0.00in /  0mm
01:39 24.5 °F /  -4.2 °C 20.1 °F /  -6.6 °C 29.85in /  1010.7hPa Calm   3.0mph /  4.8km/h 83% 0.00in /  0mm
01:44 24.4 °F /  -4.2 °C 19.7 °F /  -6.8 °C 29.85in /  1010.7hPa Calm     82% 0.00in /  0mm
01:49 24.4 °F /  -4.2 °C 19.7 °F /  -6.8 °C 29.85in /  1010.7hPa Calm     82% 0.00in /  0mm
01:54 24.3 °F /  -4.3 °C 19.6 °F /  -6.9 °C 29.85in /  1010.7hPa Calm   3.0mph /  4.8km/h 82% 0.00in /  0mm
01:59 24.3 °F /  -4.3 °C 19.3 °F /  -7.1 °C 29.85in /  1010.7hPa Calm   3.0mph /  4.8km/h 81% 0.00in /  0mm
02:04 24.4 °F /  -4.2 °C 19.4 °F /  -7 °C 29.85in /  1010.7hPa WNW 1.0mph /  1.6km/h 3.0mph /  4.8km/h 81% 0.00in /  0mm
02:09 24.7 °F /  -4.1 °C 19.4 °F /  -7 °C 29.85in /  1010.7hPa Calm   4.0mph /  6.4km/h 80% 0.00in /  0mm
02:14 24.7 °F /  -4.1 °C 19.1 °F /  -7.2 °C 29.85in /  1010.7hPa Calm   4.0mph /  6.4km/h 79% 0.00in /  0mm
02:19 24.5 °F /  -4.2 °C 18.6 °F /  -7.4 °C 29.85in /  1010.7hPa West 1.0mph /  1.6km/h 4.0mph /  6.4km/h 78% 0.00in /  0mm
02:24 24.4 °F /  -4.2 °C 18.5 °F /  -7.5 °C 29.85in /  1010.7hPa Calm   4.0mph /  6.4km/h 78% 0.00in /  0mm
02:29 24.3 °F /  -4.3 °C 18.4 °F /  -7.6 °C 29.85in /  1010.7hPa WSW 3.0mph /  4.8km/h 5.0mph /  8km/h 78% 0.00in /  0mm
02:34 24.3 °F /  -4.3 °C 18.4 °F /  -7.6 °C 29.85in /  1010.7hPa Calm   5.0mph /  8km/h 78% 0.00in /  0mm
02:39 24.3 °F /  -4.3 °C 18.4 °F /  -7.6 °C 29.85in /  1010.7hPa WSW 3.0mph /  4.8km/h 5.0mph /  8km/h 78% 0.00in /  0mm
02:44 24.5 °F /  -4.2 °C 18.6 °F /  -7.4 °C 29.85in /  1010.7hPa West 4.0mph /  6.4km/h 6.0mph /  9.7km/h 78% 0.00in /  0mm
02:49 24.6 °F /  -4.1 °C 18.4 °F /  -7.6 °C 29.84in /  1010.4hPa West 3.0mph /  4.8km/h 6.0mph /  9.7km/h 77% 0.00in /  0mm
02:54 24.6 °F /  -4.1 °C 18.1 °F /  -7.7 °C 29.85in /  1010.7hPa West 2.0mph /  3.2km/h 7.0mph /  11.3km/h 76% 0.00in /  0mm
02:59 24.5 °F /  -4.2 °C 18.0 °F /  -7.8 °C 29.85in /  1010.7hPa WNW 2.0mph /  3.2km/h 7.0mph /  11.3km/h 76% 0.00in /  0mm
03:04 24.5 °F /  -4.2 °C 18.0 °F /  -7.8 °C 29.84in /  1010.4hPa WNW 4.0mph /  6.4km/h 7.0mph /  11.3km/h 76% 0.00in /  0mm
03:09 24.8 °F /  -4 °C 18.0 °F /  -7.8 °C 29.85in /  1010.7hPa WNW 5.0mph /  8km/h 7.0mph /  11.3km/h 75% 0.00in /  0mm
03:14 24.8 °F /  -4 °C 18.0 °F /  -7.8 °C 29.85in /  1010.7hPa WNW 2.0mph /  3.2km/h 8.0mph /  12.9km/h 75% 0.00in /  0mm
03:19 24.5 °F /  -4.2 °C 17.4 °F /  -8.1 °C 29.84in /  1010.4hPa WNW 3.0mph /  4.8km/h 8.0mph /  12.9km/h 74% 0.00in /  0mm
03:24 24.2 °F /  -4.3 °C 17.1 °F /  -8.3 °C 29.84in /  1010.4hPa WNW 2.0mph /  3.2km/h 5.0mph /  8km/h 74% 0.00in /  0mm
03:30 23.8 °F /  -4.6 °C 16.7 °F /  -8.5 °C 29.85in /  1010.7hPa WNW 2.0mph /  3.2km/h 5.0mph /  8km/h 74% 0.00in /  0mm
03:39 23.4 °F /  -4.8 °C 16.6 °F /  -8.6 °C 29.85in /  1010.7hPa Calm   3.0mph /  4.8km/h 75% 0.00in /  0mm
03:44 23.4 °F /  -4.8 °C 16.6 °F /  -8.6 °C 29.85in /  1010.7hPa West 2.0mph /  3.2km/h 6.0mph /  9.7km/h 75% 0.00in /  0mm
03:49 23.5 °F /  -4.7 °C 16.7 °F /  -8.5 °C 29.85in /  1010.7hPa West 1.0mph /  1.6km/h 6.0mph /  9.7km/h 75% 0.00in /  0mm
03:54 23.4 °F /  -4.8 °C 16.3 °F /  -8.7 °C 29.85in /  1010.7hPa WNW 3.0mph /  4.8km/h 5.0mph /  8km/h 74% 0.00in /  0mm
03:59 23.3 °F /  -4.8 °C 16.2 °F /  -8.8 °C 29.85in /  1010.7hPa WNW 2.0mph /  3.2km/h 4.0mph /  6.4km/h 74% 0.00in /  0mm
04:04 23.5 °F /  -4.7 °C 16.4 °F /  -8.7 °C 29.85in /  1010.7hPa WNW 3.0mph /  4.8km/h 6.0mph /  9.7km/h 74% 0.00in /  0mm
04:09 23.6 °F /  -4.7 °C 16.5 °F /  -8.6 °C 29.85in /  1010.7hPa WNW 3.0mph /  4.8km/h 6.0mph /  9.7km/h 74% 0.00in /  0mm
04:14 23.7 °F /  -4.6 °C 16.6 °F /  -8.6 °C 29.85in /  1010.7hPa WNW 1.0mph /  1.6km/h 6.0mph /  9.7km/h 74% 0.00in /  0mm
04:19 23.8 °F /  -4.6 °C 16.4 °F /  -8.7 °C 29.85in /  1010.7hPa WNW 4.0mph /  6.4km/h 7.0mph /  11.3km/h 73% 0.00in /  0mm
04:24 23.8 °F /  -4.6 °C 16.4 °F /  -8.7 °C 29.85in /  1010.7hPa WNW 3.0mph /  4.8km/h 7.0mph /  11.3km/h 73% 0.00in /  0mm
04:29 23.8 °F /  -4.6 °C 16.4 °F /  -8.7 °C 29.85in /  1010.7hPa NW 5.0mph /  8km/h 8.0mph /  12.9km/h 73% 0.00in /  0mm
04:34 23.8 °F /  -4.6 °C 16.1 °F /  -8.8 °C 29.85in /  1010.7hPa WNW 3.0mph /  4.8km/h 8.0mph /  12.9km/h 72% 0.00in /  0mm
04:39 23.6 °F /  -4.7 °C 15.9 °F /  -8.9 °C 29.85in /  1010.7hPa NW 5.0mph /  8km/h 8.0mph /  12.9km/h 72% 0.00in /  0mm
04:44 23.6 °F /  -4.7 °C 15.9 °F /  -8.9 °C 29.85in /  1010.7hPa WNW 4.0mph /  6.4km/h 8.0mph /  12.9km/h 72% 0.00in /  0mm
04:49 23.4 °F /  -4.8 °C 15.7 °F /  -9.1 °C 29.85in /  1010.7hPa WNW 4.0mph /  6.4km/h 7.0mph /  11.3km/h 72% 0.00in /  0mm
04:54 23.2 °F /  -4.9 °C 15.5 °F /  -9.2 °C 29.85in /  1010.7hPa WNW 3.0mph /  4.8km/h 7.0mph /  11.3km/h 72% 0.00in /  0mm
04:59 23.1 °F /  -4.9 °C 15.4 °F /  -9.2 °C 29.85in /  1010.7hPa WNW 6.0mph /  9.7km/h 10.0mph /  16.1km/h 72% 0.00in /  0mm
05:04 23.1 °F /  -4.9 °C 15.4 °F /  -9.2 °C 29.85in /  1010.7hPa NW 2.0mph /  3.2km/h 10.0mph /  16.1km/h 72% 0.00in /  0mm
05:09 22.9 °F /  -5.1 °C 14.9 °F /  -9.5 °C 29.85in /  1010.7hPa WNW 1.0mph /  1.6km/h 6.0mph /  9.7km/h 71% 0.00in /  0mm
05:14 22.7 °F /  -5.2 °C 15.0 °F /  -9.4 °C 29.85in /  1010.7hPa NW 1.0mph /  1.6km/h 6.0mph /  9.7km/h 72% 0.00in /  0mm
05:19 22.6 °F /  -5.2 °C 14.9 °F /  -9.5 °C 29.85in /  1010.7hPa West 2.0mph /  3.2km/h 8.0mph /  12.9km/h 72% 0.00in /  0mm
05:24 22.2 °F /  -5.4 °C 14.2 °F /  -9.9 °C 29.86in /  1011.1hPa WNW 2.0mph /  3.2km/h 8.0mph /  12.9km/h 71% 0.00in /  0mm
05:29 21.8 °F /  -5.7 °C 14.2 °F /  -9.9 °C 29.85in /  1010.7hPa Calm   5.0mph /  8km/h 72% 0.00in /  0mm
05:34 21.6 °F /  -5.8 °C 14.3 °F /  -9.8 °C 29.86in /  1011.1hPa Calm   3.0mph /  4.8km/h 73% 0.00in /  0mm
05:39 21.4 °F /  -5.9 °C 14.1 °F /  -9.9 °C 29.86in /  1011.1hPa Calm   3.0mph /  4.8km/h 73% 0.00in /  0mm
05:44 21.7 °F /  -5.7 °C 15.0 °F /  -9.4 °C 29.86in /  1011.1hPa West 1.0mph /  1.6km/h 5.0mph /  8km/h 75% 0.00in /  0mm
05:49 21.8 °F /  -5.7 °C 15.1 °F /  -9.4 °C 29.86in /  1011.1hPa WNW 1.0mph /  1.6km/h 6.0mph /  9.7km/h 75% 0.00in /  0mm
05:54 21.8 °F /  -5.7 °C 15.1 °F /  -9.4 °C 29.86in /  1011.1hPa WNW 4.0mph /  6.4km/h 6.0mph /  9.7km/h 75% 0.00in /  0mm
05:59 22.0 °F /  -5.6 °C 15.0 °F /  -9.4 °C 29.86in /  1011.1hPa WNW 1.0mph /  1.6km/h 6.0mph /  9.7km/h 74% 0.00in /  0mm
06:04 22.0 °F /  -5.6 °C 15.6 °F /  -9.1 °C 29.86in /  1011.1hPa WNW 3.0mph /  4.8km/h 7.0mph /  11.3km/h 76% 0.00in /  0mm
06:09 21.8 °F /  -5.7 °C 15.4 °F /  -9.2 °C 29.86in /  1011.1hPa WNW 1.0mph /  1.6km/h 7.0mph /  11.3km/h 76% 0.00in /  0mm
06:14 21.4 °F /  -5.9 °C 15.0 °F /  -9.4 °C 29.86in /  1011.1hPa Calm   3.0mph /  4.8km/h 76% 0.00in /  0mm
06:19 20.9 °F /  -6.2 °C 14.5 °F /  -9.7 °C 29.87in /  1011.4hPa Calm   3.0mph /  4.8km/h 76% 0.00in /  0mm
06:24 20.6 °F /  -6.3 °C 14.5 °F /  -9.7 °C 29.87in /  1011.4hPa Calm     77% 0.00in /  0mm
06:29 20.2 °F /  -6.6 °C 14.1 °F /  -9.9 °C 29.87in /  1011.4hPa Calm     77% 0.00in /  0mm
06:34 20.2 °F /  -6.6 °C 14.1 °F /  -9.9 °C 29.88in /  1011.7hPa NW 3.0mph /  4.8km/h 8.0mph /  12.9km/h 77% 0.00in /  0mm
06:39 20.4 °F /  -6.4 °C 14.0 °F /  -10 °C 29.88in /  1011.7hPa NW 1.0mph /  1.6km/h 8.0mph /  12.9km/h 76% 0.00in /  0mm
06:44 20.3 °F /  -6.5 °C 13.6 °F /  -10.2 °C 29.88in /  1011.7hPa Calm   3.0mph /  4.8km/h 75% 0.00in /  0mm
06:49 20.1 °F /  -6.6 °C 13.5 °F /  -10.3 °C 29.88in /  1011.7hPa Calm   3.0mph /  4.8km/h 75% 0.00in /  0mm
06:54 20.1 °F /  -6.6 °C 13.5 °F /  -10.3 °C 29.88in /  1011.7hPa Calm     75% 0.00in /  0mm
06:59 19.9 °F /  -6.7 °C 13.6 °F /  -10.2 °C 29.89in /  1012.1hPa Calm     76% 0.00in /  0mm
07:04 19.5 °F /  -6.9 °C 13.2 °F /  -10.4 °C 29.89in /  1012.1hPa Calm   1.0mph /  1.6km/h 76% 0.00in /  0mm
07:09 19.7 °F /  -6.8 °C 14.0 °F /  -10 °C 29.89in /  1012.1hPa Calm   1.0mph /  1.6km/h 78% 0.00in /  0mm
07:14 19.7 °F /  -6.8 °C 13.7 °F /  -10.2 °C 29.89in /  1012.1hPa West 1.0mph /  1.6km/h 2.0mph /  3.2km/h 77% 0.00in /  0mm
07:19 20.0 °F /  -6.7 °C 13.7 °F /  -10.2 °C 29.89in /  1012.1hPa Calm   2.0mph /  3.2km/h 76% 0.00in /  0mm
07:24 20.0 °F /  -6.7 °C 13.7 °F /  -10.2 °C 29.90in /  1012.4hPa Calm   2.0mph /  3.2km/h 76% 0.00in /  0mm
07:29 20.2 °F /  -6.6 °C 14.1 °F /  -9.9 °C 29.90in /  1012.4hPa Calm   2.0mph /  3.2km/h 77% 0.00in /  0mm
07:34 20.4 °F /  -6.4 °C 14.3 °F /  -9.8 °C 29.90in /  1012.4hPa Calm     77% 0.00in /  0mm
07:39 20.7 °F /  -6.3 °C 14.9 °F /  -9.5 °C 29.90in /  1012.4hPa Calm   2.0mph /  3.2km/h 78% 0.00in /  0mm
07:44 21.1 °F /  -6.1 °C 15.3 °F /  -9.3 °C 29.90in /  1012.4hPa Calm   2.0mph /  3.2km/h 78% 0.00in /  0mm
07:49 21.6 °F /  -5.8 °C 15.5 °F /  -9.2 °C 29.90in /  1012.4hPa Calm   2.0mph /  3.2km/h 77% 0.00in /  0mm
07:54 21.9 °F /  -5.6 °C 15.8 °F /  -9 °C 29.90in /  1012.4hPa Calm     77% 0.00in /  0mm
07:59 22.2 °F /  -5.4 °C 15.8 °F /  -9 °C 29.90in /  1012.4hPa Calm     76% 0.00in /  0mm
08:04 22.5 °F /  -5.3 °C 15.8 °F /  -9 °C 29.90in /  1012.4hPa Calm     75% 0.00in /  0mm
08:09 22.7 °F /  -5.2 °C 15.7 °F /  -9.1 °C 29.90in /  1012.4hPa Calm     74% 0.00in /  0mm
08:14 23.1 °F /  -4.9 °C 16.0 °F /  -8.9 °C 29.90in /  1012.4hPa Calm     74% 0.00in /  0mm
08:19 23.4 °F /  -4.8 °C 15.7 °F /  -9.1 °C 29.90in /  1012.4hPa Calm     72% 0.00in /  0mm
08:24 23.6 °F /  -4.7 °C 15.9 °F /  -8.9 °C 29.90in /  1012.4hPa West 1.0mph /  1.6km/h 2.0mph /  3.2km/h 72% 0.00in /  0mm
08:29 23.6 °F /  -4.7 °C 14.9 °F /  -9.5 °C 29.90in /  1012.4hPa WNW 4.0mph /  6.4km/h 6.0mph /  9.7km/h 69% 0.00in /  0mm
08:34 23.4 °F /  -4.8 °C 14.7 °F /  -9.6 °C 29.90in /  1012.4hPa West 3.0mph /  4.8km/h 6.0mph /  9.7km/h 69% 0.00in /  0mm
08:39 23.2 °F /  -4.9 °C 14.9 °F /  -9.5 °C 29.90in /  1012.4hPa West 3.0mph /  4.8km/h 7.0mph /  11.3km/h 70% 0.00in /  0mm
08:44 23.1 °F /  -4.9 °C 15.1 °F /  -9.4 °C 29.90in /  1012.4hPa West 2.0mph /  3.2km/h 7.0mph /  11.3km/h 71% 0.00in /  0mm
08:49 23.1 °F /  -4.9 °C 15.1 °F /  -9.4 °C 29.90in /  1012.4hPa WNW 2.0mph /  3.2km/h 6.0mph /  9.7km/h 71% 0.00in /  0mm
08:54 23.0 °F /  -5 °C 14.3 °F /  -9.8 °C 29.90in /  1012.4hPa WSW 3.0mph /  4.8km/h 6.0mph /  9.7km/h 69% 0.00in /  0mm
08:59 23.0 °F /  -5 °C 14.3 °F /  -9.8 °C 29.90in /  1012.4hPa NW 1.0mph /  1.6km/h 6.0mph /  9.7km/h 69% 0.00in /  0mm
09:04 23.2 °F /  -4.9 °C 14.2 °F /  -9.9 °C 29.90in /  1012.4hPa WNW 2.0mph /  3.2km/h 6.0mph /  9.7km/h 68% 0.00in /  0mm
09:09 23.3 °F /  -4.8 °C 14.0 °F /  -10 °C 29.90in /  1012.4hPa NW 3.0mph /  4.8km/h 8.0mph /  12.9km/h 67% 0.00in /  0mm
09:14 23.5 °F /  -4.7 °C 13.8 °F /  -10.1 °C 29.89in /  1012.1hPa NW 5.0mph /  8km/h 8.0mph /  12.9km/h 66% 0.00in /  0mm
09:19 23.6 °F /  -4.7 °C 13.9 °F /  -10.1 °C 29.90in /  1012.4hPa WNW 3.0mph /  4.8km/h 8.0mph /  12.9km/h 66% 0.00in /  0mm
09:24 23.7 °F /  -4.6 °C 14.0 °F /  -10 °C 29.90in /  1012.4hPa WNW 2.0mph /  3.2km/h 7.0mph /  11.3km/h 66% 0.00in /  0mm
09:29 23.7 °F /  -4.6 °C 13.7 °F /  -10.2 °C 29.89in /  1012.1hPa West 2.0mph /  3.2km/h 6.0mph /  9.7km/h 65% 0.00in /  0mm
09:34 23.7 °F /  -4.6 °C 13.7 °F /  -10.2 °C 29.89in /  1012.1hPa West 3.0mph /  4.8km/h 6.0mph /  9.7km/h 65% 0.00in /  0mm
09:39 24.1 °F /  -4.4 °C 14.0 °F /  -10 °C 29.89in /  1012.1hPa West 3.0mph /  4.8km/h 6.0mph /  9.7km/h 65% 0.00in /  0mm
09:44 24.5 °F /  -4.2 °C 14.1 °F /  -9.9 °C 29.89in /  1012.1hPa WNW 5.0mph /  8km/h 7.0mph /  11.3km/h 64% 0.00in /  0mm
09:49 24.6 °F /  -4.1 °C 13.8 °F /  -10.1 °C 29.89in /  1012.1hPa Calm   7.0mph /  11.3km/h 63% 0.00in /  0mm
09:54 24.8 °F /  -4 °C 14.0 °F /  -10 °C 29.89in /  1012.1hPa NW 2.0mph /  3.2km/h 8.0mph /  12.9km/h 63% 0.00in /  0mm
09:59 25.2 °F /  -3.8 °C 13.6 °F /  -10.2 °C 29.89in /  1012.1hPa NW 1.0mph /  1.6km/h 8.0mph /  12.9km/h 61% 0.00in /  0mm
10:04 25.3 °F /  -3.7 °C 13.4 °F /  -10.3 °C 29.89in /  1012.1hPa WNW 2.0mph /  3.2km/h 6.0mph /  9.7km/h 60% 0.00in /  0mm
10:09 25.5 °F /  -3.6 °C 13.9 °F /  -10.1 °C 29.89in /  1012.1hPa WNW 4.0mph /  6.4km/h 6.0mph /  9.7km/h 61% 0.00in /  0mm
10:14 25.6 °F /  -3.6 °C 13.6 °F /  -10.2 °C 29.89in /  1012.1hPa Calm   6.0mph /  9.7km/h 60% 0.00in /  0mm
10:19 25.7 °F /  -3.5 °C 13.3 °F /  -10.4 °C 29.89in /  1012.1hPa NW 3.0mph /  4.8km/h 6.0mph /  9.7km/h 59% 0.00in /  0mm
10:24 25.8 °F /  -3.4 °C 13.1 °F /  -10.5 °C 29.89in /  1012.1hPa West 4.0mph /  6.4km/h 9.0mph /  14.5km/h 58% 0.00in /  0mm
10:29 25.6 °F /  -3.6 °C 13.3 °F /  -10.4 °C 29.88in /  1011.7hPa West 3.0mph /  4.8km/h 9.0mph /  14.5km/h 59% 0.00in /  0mm
10:34 25.9 °F /  -3.4 °C 13.1 °F /  -10.5 °C 29.88in /  1011.7hPa NW 4.0mph /  6.4km/h 8.0mph /  12.9km/h 58% 0.00in /  0mm
10:39 26.3 °F /  -3.2 °C 13.5 °F /  -10.3 °C 29.88in /  1011.7hPa West 2.0mph /  3.2km/h 8.0mph /  12.9km/h 58% 0.00in /  0mm
10:44 26.2 °F /  -3.2 °C 12.6 °F /  -10.8 °C 29.88in /  1011.7hPa WNW 2.0mph /  3.2km/h 9.0mph /  14.5km/h 56% 0.00in /  0mm
10:49 26.0 °F /  -3.3 °C 12.4 °F /  -10.9 °C 29.88in /  1011.7hPa WNW 5.0mph /  8km/h 9.0mph /  14.5km/h 56% 0.00in /  0mm
10:54 26.2 °F /  -3.2 °C 13.0 °F /  -10.6 °C 29.88in /  1011.7hPa WNW 7.0mph /  11.3km/h 12.0mph /  19.3km/h 57% 0.00in /  0mm
10:59 26.1 °F /  -3.3 °C 12.9 °F /  -10.6 °C 29.88in /  1011.7hPa West 3.0mph /  4.8km/h 12.0mph /  19.3km/h 57% 0.00in /  0mm
11:04 26.5 °F /  -3.1 °C 13.3 °F /  -10.4 °C 29.88in /  1011.7hPa WNW 3.0mph /  4.8km/h 9.0mph /  14.5km/h 57% 0.00in /  0mm
11:09 26.4 °F /  -3.1 °C 12.4 °F /  -10.9 °C 29.88in /  1011.7hPa West 5.0mph /  8km/h 11.0mph /  17.7km/h 55% 0.00in /  0mm
11:14 26.7 °F /  -2.9 °C 12.7 °F /  -10.7 °C 29.88in /  1011.7hPa WNW 5.0mph /  8km/h 12.0mph /  19.3km/h 55% 0.00in /  0mm
11:19 26.3 °F /  -3.2 °C 12.7 °F /  -10.7 °C 29.88in /  1011.7hPa West 7.0mph /  11.3km/h 12.0mph /  19.3km/h 56% 0.00in /  0mm
11:24 25.9 °F /  -3.4 °C 11.9 °F /  -11.2 °C 29.88in /  1011.7hPa WNW 7.0mph /  11.3km/h 12.0mph /  19.3km/h 55% 0.00in /  0mm
11:29 26.0 °F /  -3.3 °C 12.4 °F /  -10.9 °C 29.87in /  1011.4hPa WSW 5.0mph /  8km/h 13.0mph /  20.9km/h 56% 0.00in /  0mm
11:34 26.5 °F /  -3.1 °C 12.1 °F /  -11.1 °C 29.87in /  1011.4hPa WSW 4.0mph /  6.4km/h 13.0mph /  20.9km/h 54% 0.00in /  0mm
11:39 26.6 °F /  -3 °C 12.6 °F /  -10.8 °C 29.87in /  1011.4hPa West 6.0mph /  9.7km/h 15.0mph /  24.1km/h 55% 0.00in /  0mm
11:44 26.6 °F /  -3 °C 12.2 °F /  -11 °C 29.87in /  1011.4hPa WNW 7.0mph /  11.3km/h 15.0mph /  24.1km/h 54% 0.00in /  0mm
11:49 26.5 °F /  -3.1 °C 12.1 °F /  -11.1 °C 29.87in /  1011.4hPa West 6.0mph /  9.7km/h 13.0mph /  20.9km/h 54% 0.00in /  0mm
11:54 27.0 °F /  -2.8 °C 12.1 °F /  -11.1 °C 29.87in /  1011.4hPa West 6.0mph /  9.7km/h 13.0mph /  20.9km/h 53% 0.00in /  0mm
11:59 26.9 °F /  -2.8 °C 12.0 °F /  -11.1 °C 29.87in /  1011.4hPa WNW 6.0mph /  9.7km/h 12.0mph /  19.3km/h 53% 0.00in /  0mm
12:04 26.7 °F /  -2.9 °C 11.4 °F /  -11.4 °C 29.86in /  1011.1hPa West 7.0mph /  11.3km/h 12.0mph /  19.3km/h 52% 0.00in /  0mm
12:09 26.9 °F /  -2.8 °C 12.0 °F /  -11.1 °C 29.86in /  1011.1hPa NW 5.0mph /  8km/h 14.0mph /  22.5km/h 53% 0.00in /  0mm
12:14 27.5 °F /  -2.5 °C 12.2 °F /  -11 °C 29.87in /  1011.4hPa WNW 8.0mph /  12.9km/h 14.0mph /  22.5km/h 52% 0.00in /  0mm
12:19 26.6 °F /  -3 °C 12.2 °F /  -11 °C 29.86in /  1011.1hPa WNW 5.0mph /  8km/h 13.0mph /  20.9km/h 54% 0.00in /  0mm
12:24 27.5 °F /  -2.5 °C 13.0 °F /  -10.6 °C 29.86in /  1011.1hPa NW 5.0mph /  8km/h 11.0mph /  17.7km/h 54% 0.00in /  0mm
12:29 26.9 °F /  -2.8 °C 11.6 °F /  -11.3 °C 29.86in /  1011.1hPa WSW 6.0mph /  9.7km/h 14.0mph /  22.5km/h 52% 0.00in /  0mm
12:34 26.3 °F /  -3.2 °C 10.6 °F /  -11.9 °C 29.86in /  1011.1hPa WNW 4.0mph /  6.4km/h 17.0mph /  27.4km/h 51% 0.00in /  0mm
12:39 26.5 °F /  -3.1 °C 11.2 °F /  -11.6 °C 29.86in /  1011.1hPa NW 5.0mph /  8km/h 17.0mph /  27.4km/h 52% 0.00in /  0mm
12:44 26.5 °F /  -3.1 °C 11.7 °F /  -11.3 °C 29.86in /  1011.1hPa NW 4.0mph /  6.4km/h 14.0mph /  22.5km/h 53% 0.00in /  0mm
12:49 26.6 °F /  -3 °C 13.0 °F /  -10.6 °C 29.86in /  1011.1hPa NNW 2.0mph /  3.2km/h 14.0mph /  22.5km/h 56% 0.00in /  0mm
12:54 26.9 °F /  -2.8 °C 12.0 °F /  -11.1 °C 29.86in /  1011.1hPa North 3.0mph /  4.8km/h 7.0mph /  11.3km/h 53% 0.00in /  0mm
12:59 26.8 °F /  -2.9 °C 10.6 °F /  -11.9 °C 29.86in /  1011.1hPa West 8.0mph /  12.9km/h 15.0mph /  24.1km/h 50% 0.00in /  0mm
13:04 27.0 °F /  -2.8 °C 10.4 °F /  -12 °C 29.85in /  1010.7hPa WNW 3.0mph /  4.8km/h 17.0mph /  27.4km/h 49% 0.00in /  0mm
13:09 27.6 °F /  -2.4 °C 12.7 °F /  -10.7 °C 29.85in /  1010.7hPa NW 2.0mph /  3.2km/h 17.0mph /  27.4km/h 53% 0.00in /  0mm
13:14 27.6 °F /  -2.4 °C 10.0 °F /  -12.2 °C 29.85in /  1010.7hPa WNW 4.0mph /  6.4km/h 10.0mph /  16.1km/h 47% 0.00in /  0mm
13:19 27.7 °F /  -2.4 °C 11.5 °F /  -11.4 °C 29.85in /  1010.7hPa NW 5.0mph /  8km/h 9.0mph /  14.5km/h 50% 0.00in /  0mm
13:24 27.7 °F /  -2.4 °C 11.0 °F /  -11.7 °C 29.85in /  1010.7hPa North 5.0mph /  8km/h 10.0mph /  16.1km/h 49% 0.00in /  0mm
13:29 27.7 °F /  -2.4 °C 11.0 °F /  -11.7 °C 29.85in /  1010.7hPa NNW 5.0mph /  8km/h 10.0mph /  16.1km/h 49% 0.00in /  0mm
13:34 27.8 °F /  -2.3 °C 11.1 °F /  -11.6 °C 29.85in /  1010.7hPa NNW 3.0mph /  4.8km/h 10.0mph /  16.1km/h 49% 0.00in /  0mm
13:39 28.8 °F /  -1.8 °C 12.0 °F /  -11.1 °C 29.84in /  1010.4hPa North 4.0mph /  6.4km/h 10.0mph /  16.1km/h 49% 0.00in /  0mm
13:44 30.1 °F /  -1.1 °C 11.8 °F /  -11.2 °C 29.84in /  1010.4hPa NNW 7.0mph /  11.3km/h 11.0mph /  17.7km/h 46% 0.00in /  0mm
13:49 29.0 °F /  -1.7 °C 11.3 °F /  -11.5 °C 29.84in /  1010.4hPa NW 4.0mph /  6.4km/h 11.0mph /  17.7km/h 47% 0.00in /  0mm
13:54 28.9 °F /  -1.7 °C 10.2 °F /  -12.1 °C 29.84in /  1010.4hPa NNW 8.0mph /  12.9km/h 14.0mph /  22.5km/h 45% 0.00in /  0mm
13:59 28.6 °F /  -1.9 °C 10.9 °F /  -11.7 °C 29.84in /  1010.4hPa NNW 4.0mph /  6.4km/h 14.0mph /  22.5km/h 47% 0.00in /  0mm
14:04 28.6 °F /  -1.9 °C 10.9 °F /  -11.7 °C 29.84in /  1010.4hPa NNW 5.0mph /  8km/h 15.0mph /  24.1km/h 47% 0.00in /  0mm
14:09 28.2 °F /  -2.1 °C 9.6 °F /  -12.4 °C 29.84in /  1010.4hPa NW 10.0mph /  16.1km/h 15.0mph /  24.1km/h 45% 0.00in /  0mm
14:14 27.8 °F /  -2.3 °C 9.2 °F /  -12.7 °C 29.84in /  1010.4hPa WNW 5.0mph /  8km/h 15.0mph /  24.1km/h 45% 0.00in /  0mm
14:19 28.2 °F /  -2.1 °C 10.1 °F /  -12.2 °C 29.84in /  1010.4hPa NW 7.0mph /  11.3km/h 12.0mph /  19.3km/h 46% 0.00in /  0mm
14:24 28.5 °F /  -1.9 °C 9.8 °F /  -12.3 °C 29.84in /  1010.4hPa NNW 3.0mph /  4.8km/h 12.0mph /  19.3km/h 45% 0.00in /  0mm
14:29 28.6 °F /  -1.9 °C 9.9 °F /  -12.3 °C 29.84in /  1010.4hPa NNW 6.0mph /  9.7km/h 10.0mph /  16.1km/h 45% 0.00in /  0mm
14:34 29.4 °F /  -1.4 °C 10.7 °F /  -11.8 °C 29.83in /  1010hPa NNW 7.0mph /  11.3km/h 11.0mph /  17.7km/h 45% 0.00in /  0mm
14:39 29.0 °F /  -1.7 °C 10.3 °F /  -12.1 °C 29.84in /  1010.4hPa NNW 6.0mph /  9.7km/h 11.0mph /  17.7km/h 45% 0.00in /  0mm
14:44 29.2 °F /  -1.6 °C 11.0 °F /  -11.7 °C 29.83in /  1010hPa NW 4.0mph /  6.4km/h 11.0mph /  17.7km/h 46% 0.00in /  0mm
14:49 29.9 °F /  -1.2 °C 11.1 °F /  -11.6 °C 29.83in /  1010hPa North 4.0mph /  6.4km/h 12.0mph /  19.3km/h 45% 0.00in /  0mm
14:54 29.7 °F /  -1.3 °C 10.9 °F /  -11.7 °C 29.84in /  1010.4hPa NW 8.0mph /  12.9km/h 14.0mph /  22.5km/h 45% 0.00in /  0mm
14:59 30.1 °F /  -1.1 °C 10.8 °F /  -11.8 °C 29.83in /  1010hPa NNW 6.0mph /  9.7km/h 14.0mph /  22.5km/h 44% 0.00in /  0mm
15:04 29.8 °F /  -1.2 °C 10.0 °F /  -12.2 °C 29.84in /  1010.4hPa NNW 7.0mph /  11.3km/h 15.0mph /  24.1km/h 43% 0.00in /  0mm
15:09 29.3 °F /  -1.5 °C 9.0 °F /  -12.8 °C 29.84in /  1010.4hPa WNW 3.0mph /  4.8km/h 15.0mph /  24.1km/h 42% 0.00in /  0mm
15:14 29.1 °F /  -1.6 °C 10.9 °F /  -11.7 °C 29.83in /  1010hPa NW 8.0mph /  12.9km/h 15.0mph /  24.1km/h 46% 0.00in /  0mm
15:19 30.1 °F /  -1.1 °C 11.3 °F /  -11.5 °C 29.83in /  1010hPa North 4.0mph /  6.4km/h 14.0mph /  22.5km/h 45% 0.00in /  0mm
15:24 30.9 °F /  -0.6 °C 11.5 °F /  -11.4 °C 29.83in /  1010hPa NNW 6.0mph /  9.7km/h 12.0mph /  19.3km/h 44% 0.00in /  0mm
15:29 29.3 °F /  -1.5 °C 9.6 °F /  -12.4 °C 29.84in /  1010.4hPa NW 6.0mph /  9.7km/h 14.0mph /  22.5km/h 43% 0.00in /  0mm
15:34 28.5 °F /  -1.9 °C 9.8 °F /  -12.3 °C 29.84in /  1010.4hPa NW 2.0mph /  3.2km/h 14.0mph /  22.5km/h 45% 0.00in /  0mm
15:44 27.9 °F /  -2.3 °C 9.8 °F /  -12.3 °C 29.84in /  1010.4hPa NNW 6.0mph /  9.7km/h 16.0mph /  25.7km/h 46% 0.00in /  0mm
15:49 28.7 °F /  -1.8 °C 9.5 °F /  -12.5 °C 29.84in /  1010.4hPa WNW 9.0mph /  14.5km/h 15.0mph /  24.1km/h 44% 0.00in /  0mm
15:54 28.0 °F /  -2.2 °C 8.4 °F /  -13.1 °C 29.84in /  1010.4hPa NNW 5.0mph /  8km/h 15.0mph /  24.1km/h 43% 0.00in /  0mm
15:59 28.3 °F /  -2.1 °C 9.7 °F /  -12.4 °C 29.84in /  1010.4hPa NNW 4.0mph /  6.4km/h 9.0mph /  14.5km/h 45% 0.00in /  0mm
16:04 28.4 °F /  -2 °C 10.2 °F /  -12.1 °C 29.84in /  1010.4hPa NNW 7.0mph /  11.3km/h 15.0mph /  24.1km/h 46% 0.00in /  0mm
16:09 27.8 °F /  -2.3 °C 9.2 °F /  -12.7 °C 29.84in /  1010.4hPa NW 8.0mph /  12.9km/h 15.0mph /  24.1km/h 45% 0.00in /  0mm
16:14 28.1 °F /  -2.2 °C 10.0 °F /  -12.2 °C 29.84in /  1010.4hPa NNW 6.0mph /  9.7km/h 15.0mph /  24.1km/h 46% 0.00in /  0mm
16:19 28.1 °F /  -2.2 °C 8.5 °F /  -13.1 °C 29.85in /  1010.7hPa North 6.0mph /  9.7km/h 13.0mph /  20.9km/h 43% 0.00in /  0mm
16:24 28.3 °F /  -2.1 °C 9.2 °F /  -12.7 °C 29.85in /  1010.7hPa NNW 3.0mph /  4.8km/h 11.0mph /  17.7km/h 44% 0.00in /  0mm
16:29 27.9 °F /  -2.3 °C 9.3 °F /  -12.6 °C 29.85in /  1010.7hPa NNW 4.0mph /  6.4km/h 13.0mph /  20.9km/h 45% 0.00in /  0mm
16:34 27.7 °F /  -2.4 °C 8.6 °F /  -13 °C 29.85in /  1010.7hPa NNW 5.0mph /  8km/h 13.0mph /  20.9km/h 44% 0.00in /  0mm
16:44 28.3 °F /  -2.1 °C 8.6 °F /  -13 °C 29.85in /  1010.7hPa NNW 5.0mph /  8km/h 13.0mph /  20.9km/h 43% 0.00in /  0mm
16:49 28.6 °F /  -1.9 °C 8.4 °F /  -13.1 °C 29.85in /  1010.7hPa NNW 5.0mph /  8km/h 13.0mph /  20.9km/h 42% 0.00in /  0mm
16:54 28.5 °F /  -1.9 °C 8.3 °F /  -13.2 °C 29.85in /  1010.7hPa NNW 6.0mph /  9.7km/h 13.0mph /  20.9km/h 42% 0.00in /  0mm
16:59 28.0 °F /  -2.2 °C 8.4 °F /  -13.1 °C 29.85in /  1010.7hPa NW 4.0mph /  6.4km/h 13.0mph /  20.9km/h 43% 0.00in /  0mm
17:04 27.5 °F /  -2.5 °C 8.4 °F /  -13.1 °C 29.85in /  1010.7hPa NNW 4.0mph /  6.4km/h 15.0mph /  24.1km/h 44% 0.00in /  0mm
17:09 27.5 °F /  -2.5 °C 8.4 °F /  -13.1 °C 29.85in /  1010.7hPa NNW 4.0mph /  6.4km/h 15.0mph /  24.1km/h 44% 0.00in /  0mm
17:14 27.8 °F /  -2.3 °C 8.2 °F /  -13.2 °C 29.85in /  1010.7hPa North 4.0mph /  6.4km/h 14.0mph /  22.5km/h 43% 0.00in /  0mm
17:19 27.6 °F /  -2.4 °C 7.5 °F /  -13.6 °C 29.85in /  1010.7hPa NNW 5.0mph /  8km/h 13.0mph /  20.9km/h 42% 0.00in /  0mm
17:24 27.6 °F /  -2.4 °C 7.5 °F /  -13.6 °C 29.86in /  1011.1hPa NNW 6.0mph /  9.7km/h 13.0mph /  20.9km/h 42% 0.00in /  0mm
17:29 27.0 °F /  -2.8 °C 6.9 °F /  -13.9 °C 29.85in /  1010.7hPa NNW 4.0mph /  6.4km/h 15.0mph /  24.1km/h 42% 0.00in /  0mm
17:34 26.8 °F /  -2.9 °C 6.2 °F /  -14.3 °C 29.86in /  1011.1hPa NW 8.0mph /  12.9km/h 17.0mph /  27.4km/h 41% 0.00in /  0mm
17:44 26.2 °F /  -3.2 °C 6.2 °F /  -14.3 °C 29.86in /  1011.1hPa NNW 6.0mph /  9.7km/h 19.0mph /  30.6km/h 42% 0.00in /  0mm
17:49 25.9 °F /  -3.4 °C 6.5 °F /  -14.2 °C 29.86in /  1011.1hPa NNW 4.0mph /  6.4km/h 19.0mph /  30.6km/h 43% 0.00in /  0mm
17:54 25.8 °F /  -3.4 °C 6.4 °F /  -14.2 °C 29.86in /  1011.1hPa NNW 6.0mph /  9.7km/h 17.0mph /  27.4km/h 43% 0.00in /  0mm
17:59 26.0 °F /  -3.3 °C 6.6 °F /  -14.1 °C 29.86in /  1011.1hPa NNW 8.0mph /  12.9km/h 18.0mph /  29km/h 43% 0.00in /  0mm
18:04 26.2 °F /  -3.2 °C 6.2 °F /  -14.3 °C 29.86in /  1011.1hPa NNW 5.0mph /  8km/h 18.0mph /  29km/h 42% 0.00in /  0mm
18:09 26.4 °F /  -3.1 °C 6.9 °F /  -13.9 °C 29.86in /  1011.1hPa NNW 5.0mph /  8km/h 17.0mph /  27.4km/h 43% 0.00in /  0mm
18:14 26.6 °F /  -3 °C 6.6 °F /  -14.1 °C 29.86in /  1011.1hPa NNW 6.0mph /  9.7km/h 14.0mph /  22.5km/h 42% 0.00in /  0mm
18:19 26.2 °F /  -3.2 °C 5.7 °F /  -14.6 °C 29.86in /  1011.1hPa NW 6.0mph /  9.7km/h 16.0mph /  25.7km/h 41% 0.00in /  0mm
18:24 26.2 °F /  -3.2 °C 6.7 °F /  -14.1 °C 29.86in /  1011.1hPa NNW 6.0mph /  9.7km/h 16.0mph /  25.7km/h 43% 0.00in /  0mm
18:30 25.8 °F /  -3.4 °C 5.9 °F /  -14.5 °C 29.87in /  1011.4hPa NNW 7.0mph /  11.3km/h 17.0mph /  27.4km/h 42% 0.00in /  0mm
18:34 25.4 °F /  -3.7 °C 6.0 °F /  -14.4 °C 29.87in /  1011.4hPa NNW 4.0mph /  6.4km/h 17.0mph /  27.4km/h 43% 0.00in /  0mm
18:39 25.2 °F /  -3.8 °C 5.8 °F /  -14.6 °C 29.87in /  1011.4hPa NNW 7.0mph /  11.3km/h 16.0mph /  25.7km/h 43% 0.00in /  0mm
18:44 24.9 °F /  -3.9 °C 5.5 °F /  -14.7 °C 29.87in /  1011.4hPa NNW 7.0mph /  11.3km/h 14.0mph /  22.5km/h 43% 0.00in /  0mm
18:49 24.6 °F /  -4.1 °C 5.8 °F /  -14.6 °C 29.87in /  1011.4hPa NNW 5.0mph /  8km/h 14.0mph /  22.5km/h 44% 0.00in /  0mm
18:54 24.2 °F /  -4.3 °C 5.9 °F /  -14.5 °C 29.87in /  1011.4hPa NW 4.0mph /  6.4km/h 14.0mph /  22.5km/h 45% 0.00in /  0mm
18:59 23.8 °F /  -4.6 °C 6.0 °F /  -14.4 °C 29.88in /  1011.7hPa NNW 3.0mph /  4.8km/h 11.0mph /  17.7km/h 46% 0.00in /  0mm
19:04 23.5 °F /  -4.7 °C 5.7 °F /  -14.6 °C 29.88in /  1011.7hPa NNW 9.0mph /  14.5km/h 14.0mph /  22.5km/h 46% 0.00in /  0mm
19:09 23.3 °F /  -4.8 °C 6.5 °F /  -14.2 °C 29.88in /  1011.7hPa NW 3.0mph /  4.8km/h 14.0mph /  22.5km/h 48% 0.00in /  0mm
19:14 23.0 °F /  -5 °C 6.2 °F /  -14.3 °C 29.88in /  1011.7hPa NW 7.0mph /  11.3km/h 13.0mph /  20.9km/h 48% 0.00in /  0mm
19:19 23.0 °F /  -5 °C 6.2 °F /  -14.3 °C 29.88in /  1011.7hPa NW 6.0mph /  9.7km/h 14.0mph /  22.5km/h 48% 0.00in /  0mm
19:24 22.7 °F /  -5.2 °C 5.9 °F /  -14.5 °C 29.88in /  1011.7hPa NNW 5.0mph /  8km/h 14.0mph /  22.5km/h 48% 0.00in /  0mm
19:29 22.5 °F /  -5.3 °C 6.2 °F /  -14.3 °C 29.89in /  1012.1hPa NNW 4.0mph /  6.4km/h 11.0mph /  17.7km/h 49% 0.00in /  0mm
19:34 22.5 °F /  -5.3 °C 6.2 °F /  -14.3 °C 29.89in /  1012.1hPa NW 5.0mph /  8km/h 18.0mph /  29km/h 49% 0.00in /  0mm
19:39 22.3 °F /  -5.4 °C 6.0 °F /  -14.4 °C 29.89in /  1012.1hPa NNW 4.0mph /  6.4km/h 18.0mph /  29km/h 49% 0.00in /  0mm
19:44 22.1 °F /  -5.5 °C 5.8 °F /  -14.6 °C 29.89in /  1012.1hPa NNW 7.0mph /  11.3km/h 15.0mph /  24.1km/h 49% 0.00in /  0mm
19:49 22.2 °F /  -5.4 °C 5.9 °F /  -14.5 °C 29.89in /  1012.1hPa NW 6.0mph /  9.7km/h 15.0mph /  24.1km/h 49% 0.00in /  0mm
19:54 22.1 °F /  -5.5 °C 5.8 °F /  -14.6 °C 29.89in /  1012.1hPa NW 6.0mph /  9.7km/h 11.0mph /  17.7km/h 49% 0.00in /  0mm
19:59 22.0 °F /  -5.6 °C 5.7 °F /  -14.6 °C 29.90in /  1012.4hPa NNW 4.0mph /  6.4km/h 11.0mph /  17.7km/h 49% 0.00in /  0mm
20:04 22.0 °F /  -5.6 °C 5.7 °F /  -14.6 °C 29.90in /  1012.4hPa NNW 8.0mph /  12.9km/h 18.0mph /  29km/h 49% 0.00in /  0mm
20:09 22.0 °F /  -5.6 °C 5.7 °F /  -14.6 °C 29.90in /  1012.4hPa NNW 4.0mph /  6.4km/h 18.0mph /  29km/h 49% 0.00in /  0mm
20:14 21.7 °F /  -5.7 °C 5.9 °F /  -14.5 °C 29.91in /  1012.8hPa NNW 2.0mph /  3.2km/h 12.0mph /  19.3km/h 50% 0.00in /  0mm
20:19 21.6 °F /  -5.8 °C 5.8 °F /  -14.6 °C 29.91in /  1012.8hPa NNW 4.0mph /  6.4km/h 13.0mph /  20.9km/h 50% 0.00in /  0mm
20:24 21.6 °F /  -5.8 °C 5.8 °F /  -14.6 °C 29.91in /  1012.8hPa NW 5.0mph /  8km/h 13.0mph /  20.9km/h 50% 0.00in /  0mm
20:29 21.6 °F /  -5.8 °C 6.3 °F /  -14.3 °C 29.91in /  1012.8hPa NW 4.0mph /  6.4km/h 8.0mph /  12.9km/h 51% 0.00in /  0mm
20:34 21.4 °F /  -5.9 °C 6.5 °F /  -14.2 °C 29.91in /  1012.8hPa NW 1.0mph /  1.6km/h 8.0mph /  12.9km/h 52% 0.00in /  0mm
20:39 21.1 °F /  -6.1 °C 6.6 °F /  -14.1 °C 29.91in /  1012.8hPa NW 3.0mph /  4.8km/h 6.0mph /  9.7km/h 53% 0.00in /  0mm
20:44 20.8 °F /  -6.2 °C 6.8 °F /  -14 °C 29.92in /  1013.1hPa NW 4.0mph /  6.4km/h 8.0mph /  12.9km/h 54% 0.00in /  0mm
20:49 20.8 °F /  -6.2 °C 6.8 °F /  -14 °C 29.92in /  1013.1hPa NW 5.0mph /  8km/h 11.0mph /  17.7km/h 54% 0.00in /  0mm
20:54 20.9 °F /  -6.2 °C 6.4 °F /  -14.2 °C 29.92in /  1013.1hPa NW 5.0mph /  8km/h 11.0mph /  17.7km/h 53% 0.00in /  0mm
20:59 21.1 °F /  -6.1 °C 6.6 °F /  -14.1 °C 29.92in /  1013.1hPa NW 4.0mph /  6.4km/h 9.0mph /  14.5km/h 53% 0.00in /  0mm
21:04 20.9 °F /  -6.2 °C 6.9 °F /  -13.9 °C 29.92in /  1013.1hPa NW 1.0mph /  1.6km/h 8.0mph /  12.9km/h 54% 0.00in /  0mm
21:09 20.9 °F /  -6.2 °C 6.4 °F /  -14.2 °C 29.92in /  1013.1hPa NW 2.0mph /  3.2km/h 7.0mph /  11.3km/h 53% 0.00in /  0mm
21:14 20.8 °F /  -6.2 °C 6.4 °F /  -14.2 °C 29.91in /  1012.8hPa NW 4.0mph /  6.4km/h 11.0mph /  17.7km/h 53% 0.00in /  0mm
21:19 20.8 °F /  -6.2 °C 6.8 °F /  -14 °C 29.92in /  1013.1hPa WNW 3.0mph /  4.8km/h 11.0mph /  17.7km/h 54% 0.00in /  0mm
21:24 20.5 °F /  -6.4 °C 6.5 °F /  -14.2 °C 29.92in /  1013.1hPa WNW 1.0mph /  1.6km/h 11.0mph /  17.7km/h 54% 0.00in /  0mm
21:29 20.4 °F /  -6.4 °C 6.4 °F /  -14.2 °C 29.92in /  1013.1hPa WNW 3.0mph /  4.8km/h 9.0mph /  14.5km/h 54% 0.00in /  0mm
21:34 20.2 °F /  -6.6 °C 6.2 °F /  -14.3 °C 29.92in /  1013.1hPa WNW 4.0mph /  6.4km/h 9.0mph /  14.5km/h 54% 0.00in /  0mm
21:44 19.9 °F /  -6.7 °C 5.9 °F /  -14.5 °C 29.91in /  1012.8hPa Calm   5.0mph /  8km/h 54% 0.00in /  0mm
21:49 19.7 °F /  -6.8 °C 6.1 °F /  -14.4 °C 29.91in /  1012.8hPa WNW 3.0mph /  4.8km/h 6.0mph /  9.7km/h 55% 0.00in /  0mm
21:54 19.7 °F /  -6.8 °C 6.1 °F /  -14.4 °C 29.91in /  1012.8hPa West 1.0mph /  1.6km/h 6.0mph /  9.7km/h 55% 0.00in /  0mm
21:59 19.9 °F /  -6.7 °C 6.3 °F /  -14.3 °C 29.91in /  1012.8hPa West 2.0mph /  3.2km/h 6.0mph /  9.7km/h 55% 0.00in /  0mm
22:04 20.2 °F /  -6.6 °C 6.6 °F /  -14.1 °C 29.91in /  1012.8hPa WNW 1.0mph /  1.6km/h 9.0mph /  14.5km/h 55% 0.00in /  0mm
22:09 20.4 °F /  -6.4 °C 6.8 °F /  -14 °C 29.91in /  1012.8hPa WNW 3.0mph /  4.8km/h 9.0mph /  14.5km/h 55% 0.00in /  0mm
22:14 20.6 °F /  -6.3 °C 7.4 °F /  -13.7 °C 29.91in /  1012.8hPa WNW 1.0mph /  1.6km/h 6.0mph /  9.7km/h 56% 0.00in /  0mm
22:19 20.7 °F /  -6.3 °C 7.1 °F /  -13.8 °C 29.91in /  1012.8hPa WNW 2.0mph /  3.2km/h 6.0mph /  9.7km/h 55% 0.00in /  0mm
22:24 20.7 °F /  -6.3 °C 7.1 °F /  -13.8 °C 29.91in /  1012.8hPa WNW 2.0mph /  3.2km/h 6.0mph /  9.7km/h 55% 0.00in /  0mm
22:29 20.8 °F /  -6.2 °C 7.2 °F /  -13.8 °C 29.91in /  1012.8hPa WNW 5.0mph /  8km/h 10.0mph /  16.1km/h 55% 0.00in /  0mm
22:35 20.9 °F /  -6.2 °C 7.3 °F /  -13.7 °C 29.91in /  1012.8hPa NW 4.0mph /  6.4km/h 10.0mph /  16.1km/h 55% 0.00in /  0mm
22:44 21.0 °F /  -6.1 °C 7.8 °F /  -13.4 °C 29.91in /  1012.8hPa NW 4.0mph /  6.4km/h 9.0mph /  14.5km/h 56% 0.00in /  0mm
22:49 21.0 °F /  -6.1 °C 7.4 °F /  -13.7 °C 29.91in /  1012.8hPa WNW 6.0mph /  9.7km/h 9.0mph /  14.5km/h 55% 0.00in /  0mm
22:54 21.1 °F /  -6.1 °C 7.4 °F /  -13.7 °C 29.91in /  1012.8hPa WNW 5.0mph /  8km/h 9.0mph /  14.5km/h 55% 0.00in /  0mm
22:59 21.0 °F /  -6.1 °C 7.8 °F /  -13.4 °C 29.91in /  1012.8hPa West 4.0mph /  6.4km/h 10.0mph /  16.1km/h 56% 0.00in /  0mm
23:04 20.9 °F /  -6.2 °C 7.7 °F /  -13.5 °C 29.91in /  1012.8hPa NW 6.0mph /  9.7km/h 14.0mph /  22.5km/h 56% 0.00in /  0mm
23:09 20.9 °F /  -6.2 °C 8.1 °F /  -13.3 °C 29.91in /  1012.8hPa WNW 3.0mph /  4.8km/h 14.0mph /  22.5km/h 57% 0.00in /  0mm
23:14 20.7 °F /  -6.3 °C 7.9 °F /  -13.4 °C 29.91in /  1012.8hPa WNW 5.0mph /  8km/h 12.0mph /  19.3km/h 57% 0.00in /  0mm
23:19 20.6 °F /  -6.3 °C 8.2 °F /  -13.2 °C 29.91in /  1012.8hPa NW 5.0mph /  8km/h 12.0mph /  19.3km/h 58% 0.00in /  0mm
23:24 20.4 °F /  -6.4 °C 8.0 °F /  -13.3 °C 29.91in /  1012.8hPa WNW 4.0mph /  6.4km/h 11.0mph /  17.7km/h 58% 0.00in /  0mm
23:29 20.3 °F /  -6.5 °C 7.9 °F /  -13.4 °C 29.91in /  1012.8hPa WNW 4.0mph /  6.4km/h 9.0mph /  14.5km/h 58% 0.00in /  0mm
23:35 20.3 °F /  -6.5 °C 7.9 °F /  -13.4 °C 29.91in /  1012.8hPa WNW 7.0mph /  11.3km/h 13.0mph /  20.9km/h 58% 0.00in /  0mm
23:44 20.1 °F /  -6.6 °C 7.7 °F /  -13.5 °C 29.91in /  1012.8hPa WNW 4.0mph /  6.4km/h 8.0mph /  12.9km/h 58% 0.00in /  0mm
23:49 19.7 °F /  -6.8 °C 7.7 °F /  -13.5 °C 29.91in /  1012.8hPa WNW 2.0mph /  3.2km/h 8.0mph /  12.9km/h 59% 0.00in /  0mm
23:54 19.7 °F /  -6.8 °C 7.7 °F /  -13.5 °C 29.91in /  1012.8hPa WNW 1.0mph /  1.6km/h 6.0mph /  9.7km/h 59% 0.00in /  0mm
23:59 19.4 °F /  -7 °C 7.8 °F /  -13.4 °C 29.91in /  1012.8hPa WNW 2.0mph /  3.2km/h 6.0mph /  9.7km/h 60% 0.00in /  0mm
Westford Weather
Compliments of Weather Underground

 
 
Current Radar Loop:

Copyright © WestfordWeather.net 2007-2014. All rights reserved.